Castanheira, Brazil
Current Conditions -  °F | °C
As of 1:00 AM on Thursday 27 Nov 2014 (Local Time) from SBVH Reporting Station
Thunderstorm Thunderstorm  
Wind Chill: 70°   Ceiling: 1500
Heat Index: 70°   Visibility: 6mi
Dew Point: 70°   Wind: 5mph
Humidity: 100%   Direction: 350°N
Pressure: NA   Gusts: NA
Location:  11.13°S, 58.6°W
Report Text: SBVH 270400Z 35004KT 9999 -TSRA BKN015 FEW020CB SCT080 21/21 Q1013
Loading
Personal Weather Stations






























Interactive Weather Map New forecast layout! Learn more

10-Day Weather Forecast

Advertisements
Track Severe Weather on mobile